sensor_id;sensor_type;location;lat;lon;timestamp;temperature;humidity
52973;DHT22;38837;48.916;2.336;2024-02-23T00:01:15;26.50;31.60
52973;DHT22;38837;48.916;2.336;2024-02-23T00:03:17;26.60;31.50
52973;DHT22;38837;48.916;2.336;2024-02-23T00:05:19;26.60;31.40
52973;DHT22;38837;48.916;2.336;2024-02-23T00:07:21;26.60;31.40
52973;DHT22;38837;48.916;2.336;2024-02-23T00:09:23;26.60;31.30
52973;DHT22;38837;48.916;2.336;2024-02-23T00:11:26;26.60;31.30
52973;DHT22;38837;48.916;2.336;2024-02-23T00:13:30;26.50;31.30
52973;DHT22;38837;48.916;2.336;2024-02-23T00:15:31;26.50;31.30
52973;DHT22;38837;48.916;2.336;2024-02-23T00:17:33;26.50;31.30
52973;DHT22;38837;48.916;2.336;2024-02-23T00:19:35;26.40;31.40
52973;DHT22;38837;48.916;2.336;2024-02-23T00:21:38;26.30;31.40
52973;DHT22;38837;48.916;2.336;2024-02-23T00:23:40;26.30;31.40
52973;DHT22;38837;48.916;2.336;2024-02-23T00:25:42;26.50;31.50
52973;DHT22;38837;48.916;2.336;2024-02-23T00:27:44;26.50;31.40
52973;DHT22;38837;48.916;2.336;2024-02-23T00:29:46;26.50;31.40
52973;DHT22;38837;48.916;2.336;2024-02-23T00:31:47;26.50;31.40
52973;DHT22;38837;48.916;2.336;2024-02-23T00:33:49;26.50;31.30
52973;DHT22;38837;48.916;2.336;2024-02-23T00:35:51;26.60;31.40
52973;DHT22;38837;48.916;2.336;2024-02-23T00:37:54;26.50;31.20
52973;DHT22;38837;48.916;2.336;2024-02-23T00:39:56;26.50;31.20
52973;DHT22;38837;48.916;2.336;2024-02-23T00:41:58;26.50;31.20
52973;DHT22;38837;48.916;2.336;2024-02-23T00:44:00;26.50;31.30
52973;DHT22;38837;48.916;2.336;2024-02-23T00:46:01;26.50;31.30
52973;DHT22;38837;48.916;2.336;2024-02-23T00:48:04;26.40;31.40
52973;DHT22;38837;48.916;2.336;2024-02-23T00:50:06;26.30;31.30
52973;DHT22;38837;48.916;2.336;2024-02-23T00:52:08;26.40;31.50
52973;DHT22;38837;48.916;2.336;2024-02-23T00:54:10;26.40;31.50
52973;DHT22;38837;48.916;2.336;2024-02-23T00:56:12;26.40;31.30
52973;DHT22;38837;48.916;2.336;2024-02-23T00:58:14;26.50;31.30
52973;DHT22;38837;48.916;2.336;2024-02-23T01:00:17;26.50;31.00
52973;DHT22;38837;48.916;2.336;2024-02-23T01:02:19;26.50;31.20
52973;DHT22;38837;48.916;2.336;2024-02-23T01:04:21;26.50;31.20
52973;DHT22;38837;48.916;2.336;2024-02-23T01:06:23;26.50;31.20
52973;DHT22;38837;48.916;2.336;2024-02-23T01:08:26;26.50;31.20
52973;DHT22;38837;48.916;2.336;2024-02-23T01:10:29;26.50;31.10
52973;DHT22;38837;48.916;2.336;2024-02-23T01:12:31;26.40;31.20
52973;DHT22;38837;48.916;2.336;2024-02-23T01:14:32;26.40;31.20
52973;DHT22;38837;48.916;2.336;2024-02-23T01:16:34;26.30;31.20
52973;DHT22;38837;48.916;2.336;2024-02-23T01:18:36;26.30;31.30
52973;DHT22;38837;48.916;2.336;2024-02-23T01:20:38;26.30;31.30
52973;DHT22;38837;48.916;2.336;2024-02-23T01:22:40;26.30;31.30
52973;DHT22;38837;48.916;2.336;2024-02-23T01:24:42;26.40;31.40
52973;DHT22;38837;48.916;2.336;2024-02-23T01:26:44;26.40;31.30
52973;DHT22;38837;48.916;2.336;2024-02-23T01:28:46;26.50;31.20
52973;DHT22;38837;48.916;2.336;2024-02-23T01:30:48;26.50;31.20
52973;DHT22;38837;48.916;2.336;2024-02-23T01:32:50;26.50;31.00
52973;DHT22;38837;48.916;2.336;2024-02-23T01:34:52;26.50;31.10
52973;DHT22;38837;48.916;2.336;2024-02-23T01:36:54;26.50;31.10
52973;DHT22;38837;48.916;2.336;2024-02-23T01:38:56;26.50;31.10
52973;DHT22;38837;48.916;2.336;2024-02-23T01:40:59;26.40;31.10
52973;DHT22;38837;48.916;2.336;2024-02-23T01:43:04;26.40;31.20
52973;DHT22;38837;48.916;2.336;2024-02-23T01:45:07;26.30;31.20
52973;DHT22;38837;48.916;2.336;2024-02-23T01:47:10;26.20;31.20
52973;DHT22;38837;48.916;2.336;2024-02-23T01:49:12;26.20;31.30
52973;DHT22;38837;48.916;2.336;2024-02-23T01:51:14;26.20;31.30
52973;DHT22;38837;48.916;2.336;2024-02-23T01:53:16;26.30;31.30
52973;DHT22;38837;48.916;2.336;2024-02-23T01:55:21;26.30;31.20
52973;DHT22;38837;48.916;2.336;2024-02-23T01:57:24;26.40;31.30
52973;DHT22;38837;48.916;2.336;2024-02-23T01:59:46;26.50;31.20
52973;DHT22;38837;48.916;2.336;2024-02-23T02:01:48;26.50;31.20
52973;DHT22;38837;48.916;2.336;2024-02-23T02:03:50;26.50;31.10
52973;DHT22;38837;48.916;2.336;2024-02-23T02:05:53;26.50;31.20
52973;DHT22;38837;48.916;2.336;2024-02-23T02:07:56;26.40;31.10
52973;DHT22;38837;48.916;2.336;2024-02-23T02:10:01;26.40;31.10
52973;DHT22;38837;48.916;2.336;2024-02-23T02:12:05;26.30;31.10
52973;DHT22;38837;48.916;2.336;2024-02-23T02:14:07;26.20;31.20
52973;DHT22;38837;48.916;2.336;2024-02-23T02:16:09;26.20;31.30
52973;DHT22;38837;48.916;2.336;2024-02-23T02:18:12;26.30;31.30
52973;DHT22;38837;48.916;2.336;2024-02-23T02:20:14;26.30;31.30
52973;DHT22;38837;48.916;2.336;2024-02-23T02:22:16;26.30;31.30
52973;DHT22;38837;48.916;2.336;2024-02-23T02:24:18;26.30;31.20
52973;DHT22;38837;48.916;2.336;2024-02-23T02:26:20;26.40;31.20
52973;DHT22;38837;48.916;2.336;2024-02-23T02:28:23;26.40;31.20
52973;DHT22;38837;48.916;2.336;2024-02-23T02:30:25;26.50;31.20
52973;DHT22;38837;48.916;2.336;2024-02-23T02:32:27;26.50;31.10
52973;DHT22;38837;48.916;2.336;2024-02-23T02:34:31;26.40;31.10
52973;DHT22;38837;48.916;2.336;2024-02-23T02:36:33;26.40;31.10
52973;DHT22;38837;48.916;2.336;2024-02-23T02:38:35;26.40;31.20
52973;DHT22;38837;48.916;2.336;2024-02-23T02:40:37;26.30;31.10
52973;DHT22;38837;48.916;2.336;2024-02-23T02:42:39;26.30;31.20
52973;DHT22;38837;48.916;2.336;2024-02-23T02:44:41;26.20;31.10
52973;DHT22;38837;48.916;2.336;2024-02-23T02:46:43;26.20;31.70
52973;DHT22;38837;48.916;2.336;2024-02-23T02:48:46;26.20;31.20
52973;DHT22;38837;48.916;2.336;2024-02-23T02:50:48;26.30;31.20
52973;DHT22;38837;48.916;2.336;2024-02-23T02:52:54;26.30;31.20
52973;DHT22;38837;48.916;2.336;2024-02-23T02:54:56;26.40;31.20
52973;DHT22;38837;48.916;2.336;2024-02-23T02:56:58;26.40;31.10
52973;DHT22;38837;48.916;2.336;2024-02-23T02:59:00;26.40;31.10
52973;DHT22;38837;48.916;2.336;2024-02-23T03:01:02;26.50;31.10
52973;DHT22;38837;48.916;2.336;2024-02-23T03:03:04;26.50;31.10
52973;DHT22;38837;48.916;2.336;2024-02-23T03:05:07;26.50;31.00
52973;DHT22;38837;48.916;2.336;2024-02-23T03:07:09;26.40;31.00
52973;DHT22;38837;48.916;2.336;2024-02-23T03:09:11;26.30;31.00
52973;DHT22;38837;48.916;2.336;2024-02-23T03:11:13;26.20;31.00
52973;DHT22;38837;48.916;2.336;2024-02-23T03:13:15;26.20;31.10
52973;DHT22;38837;48.916;2.336;2024-02-23T03:15:16;26.10;31.10
52973;DHT22;38837;48.916;2.336;2024-02-23T03:17:18;26.10;31.10
52973;DHT22;38837;48.916;2.336;2024-02-23T03:19:20;26.20;31.20
52973;DHT22;38837;48.916;2.336;2024-02-23T03:21:24;26.20;31.20
52973;DHT22;38837;48.916;2.336;2024-02-23T03:23:26;26.30;31.10
52973;DHT22;38837;48.916;2.336;2024-02-23T03:25:28;26.30;31.10
52973;DHT22;38837;48.916;2.336;2024-02-23T03:27:30;26.30;31.60
52973;DHT22;38837;48.916;2.336;2024-02-23T03:29:32;26.40;31.10
52973;DHT22;38837;48.916;2.336;2024-02-23T03:31:35;26.30;31.00
52973;DHT22;38837;48.916;2.336;2024-02-23T03:33:36;26.30;31.00
52973;DHT22;38837;48.916;2.336;2024-02-23T03:35:38;26.30;31.00
52973;DHT22;38837;48.916;2.336;2024-02-23T03:37:40;26.20;31.00
52973;DHT22;38837;48.916;2.336;2024-02-23T03:39:42;26.20;31.00
52973;DHT22;38837;48.916;2.336;2024-02-23T03:41:44;26.10;31.00
52973;DHT22;38837;48.916;2.336;2024-02-23T03:43:46;26.10;31.10
52973;DHT22;38837;48.916;2.336;2024-02-23T03:45:48;26.00;31.10
52973;DHT22;38837;48.916;2.336;2024-02-23T03:47:50;26.00;31.10
52973;DHT22;38837;48.916;2.336;2024-02-23T03:49:52;26.10;31.10
52973;DHT22;38837;48.916;2.336;2024-02-23T03:51:54;26.30;31.10
52973;DHT22;38837;48.916;2.336;2024-02-23T03:53:55;26.30;31.00
52973;DHT22;38837;48.916;2.336;2024-02-23T03:55:57;26.30;30.90
52973;DHT22;38837;48.916;2.336;2024-02-23T03:57:59;26.30;30.90
52973;DHT22;38837;48.916;2.336;2024-02-23T04:00:02;26.30;30.90
52973;DHT22;38837;48.916;2.336;2024-02-23T04:02:04;26.30;30.90
52973;DHT22;38837;48.916;2.336;2024-02-23T04:04:07;26.20;30.90
52973;DHT22;38837;48.916;2.336;2024-02-23T04:06:09;26.20;30.90
52973;DHT22;38837;48.916;2.336;2024-02-23T04:08:11;26.10;31.00
52973;DHT22;38837;48.916;2.336;2024-02-23T04:10:13;26.10;30.90
52973;DHT22;38837;48.916;2.336;2024-02-23T04:12:18;26.00;31.00
52973;DHT22;38837;48.916;2.336;2024-02-23T04:14:21;26.00;31.10
52973;DHT22;38837;48.916;2.336;2024-02-23T04:16:24;26.00;31.10
52973;DHT22;38837;48.916;2.336;2024-02-23T04:18:29;26.00;31.20
52973;DHT22;38837;48.916;2.336;2024-02-23T04:20:31;26.10;31.10
52973;DHT22;38837;48.916;2.336;2024-02-23T04:22:34;26.10;31.00
52973;DHT22;38837;48.916;2.336;2024-02-23T04:24:39;26.20;31.00
52973;DHT22;38837;48.916;2.336;2024-02-23T04:26:41;26.30;30.90
52973;DHT22;38837;48.916;2.336;2024-02-23T04:28:43;26.20;30.80
52973;DHT22;38837;48.916;2.336;2024-02-23T04:30:45;26.30;30.90
52973;DHT22;38837;48.916;2.336;2024-02-23T04:32:47;26.30;30.90
52973;DHT22;38837;48.916;2.336;2024-02-23T04:34:49;26.20;30.80
52973;DHT22;38837;48.916;2.336;2024-02-23T04:36:51;26.20;30.90
52973;DHT22;38837;48.916;2.336;2024-02-23T04:38:53;26.20;30.90
52973;DHT22;38837;48.916;2.336;2024-02-23T04:40:55;26.10;30.80
52973;DHT22;38837;48.916;2.336;2024-02-23T04:42:58;26.10;31.00
52973;DHT22;38837;48.916;2.336;2024-02-23T04:45:00;26.10;31.00
52973;DHT22;38837;48.916;2.336;2024-02-23T04:47:02;26.10;30.90
52973;DHT22;38837;48.916;2.336;2024-02-23T04:49:04;26.20;31.00
52973;DHT22;38837;48.916;2.336;2024-02-23T04:51:06;26.20;30.90
52973;DHT22;38837;48.916;2.336;2024-02-23T04:53:11;26.20;30.90
52973;DHT22;38837;48.916;2.336;2024-02-23T04:55:13;26.30;30.90
52973;DHT22;38837;48.916;2.336;2024-02-23T04:57:15;26.20;30.80
52973;DHT22;38837;48.916;2.336;2024-02-23T04:59:17;26.30;30.80
52973;DHT22;38837;48.916;2.336;2024-02-23T05:01:19;26.30;30.70
52973;DHT22;38837;48.916;2.336;2024-02-23T05:03:21;26.20;30.70
52973;DHT22;38837;48.916;2.336;2024-02-23T05:05:23;26.20;30.80
52973;DHT22;38837;48.916;2.336;2024-02-23T05:07:25;26.20;30.80
52973;DHT22;38837;48.916;2.336;2024-02-23T05:09:27;26.10;30.90
52973;DHT22;38837;48.916;2.336;2024-02-23T05:11:29;26.10;30.90
52973;DHT22;38837;48.916;2.336;2024-02-23T05:13:31;26.10;31.00
52973;DHT22;38837;48.916;2.336;2024-02-23T05:15:33;26.10;30.80
52973;DHT22;38837;48.916;2.336;2024-02-23T05:17:35;26.10;30.90
52973;DHT22;38837;48.916;2.336;2024-02-23T05:19:37;26.20;30.90
52973;DHT22;38837;48.916;2.336;2024-02-23T05:21:38;26.20;30.90
52973;DHT22;38837;48.916;2.336;2024-02-23T05:23:40;26.20;30.90
52973;DHT22;38837;48.916;2.336;2024-02-23T05:25:42;26.30;30.90
52973;DHT22;38837;48.916;2.336;2024-02-23T05:27:44;26.30;30.80
52973;DHT22;38837;48.916;2.336;2024-02-23T05:29:46;26.30;30.80
52973;DHT22;38837;48.916;2.336;2024-02-23T05:31:49;26.30;30.80
52973;DHT22;38837;48.916;2.336;2024-02-23T05:33:51;26.20;30.70
52973;DHT22;38837;48.916;2.336;2024-02-23T05:35:53;26.20;30.80
52973;DHT22;38837;48.916;2.336;2024-02-23T05:37:55;26.10;30.80
52973;DHT22;38837;48.916;2.336;2024-02-23T05:39:57;26.10;31.40
52973;DHT22;38837;48.916;2.336;2024-02-23T05:42:01;26.00;30.90
52973;DHT22;38837;48.916;2.336;2024-02-23T05:44:04;26.00;30.90
52973;DHT22;38837;48.916;2.336;2024-02-23T05:46:08;26.10;30.90
52973;DHT22;38837;48.916;2.336;2024-02-23T05:48:09;26.10;30.90
52973;DHT22;38837;48.916;2.336;2024-02-23T05:50:11;26.20;30.90
52973;DHT22;38837;48.916;2.336;2024-02-23T05:52:13;26.20;30.80
52973;DHT22;38837;48.916;2.336;2024-02-23T05:54:16;26.20;30.80
52973;DHT22;38837;48.916;2.336;2024-02-23T05:56:18;26.30;30.80
52973;DHT22;38837;48.916;2.336;2024-02-23T05:58:20;26.30;30.70
52973;DHT22;38837;48.916;2.336;2024-02-23T06:00:22;26.20;30.70
52973;DHT22;38837;48.916;2.336;2024-02-23T06:02:24;26.20;30.70
52973;DHT22;38837;48.916;2.336;2024-02-23T06:04:27;26.20;30.70
52973;DHT22;38837;48.916;2.336;2024-02-23T06:06:29;26.10;30.70
52973;DHT22;38837;48.916;2.336;2024-02-23T06:08:32;26.10;30.70
52973;DHT22;38837;48.916;2.336;2024-02-23T06:10:34;26.00;30.80
52973;DHT22;38837;48.916;2.336;2024-02-23T06:12:36;26.00;30.80
52973;DHT22;38837;48.916;2.336;2024-02-23T06:14:37;26.10;30.90
52973;DHT22;38837;48.916;2.336;2024-02-23T06:16:40;26.10;30.80
52973;DHT22;38837;48.916;2.336;2024-02-23T06:18:42;26.20;30.80
52973;DHT22;38837;48.916;2.336;2024-02-23T06:20:44;26.20;30.80
52973;DHT22;38837;48.916;2.336;2024-02-23T06:22:46;26.20;30.70
52973;DHT22;38837;48.916;2.336;2024-02-23T06:24:48;26.20;30.70
52973;DHT22;38837;48.916;2.336;2024-02-23T06:26:50;26.20;30.70
52973;DHT22;38837;48.916;2.336;2024-02-23T06:28:53;26.10;30.70
52973;DHT22;38837;48.916;2.336;2024-02-23T06:30:55;26.00;30.70
52973;DHT22;38837;48.916;2.336;2024-02-23T06:32:57;25.90;30.70
52973;DHT22;38837;48.916;2.336;2024-02-23T06:34:59;25.90;30.80
52973;DHT22;38837;48.916;2.336;2024-02-23T06:37:02;25.80;30.80
52973;DHT22;38837;48.916;2.336;2024-02-23T06:39:04;25.80;31.00
52973;DHT22;38837;48.916;2.336;2024-02-23T06:41:06;25.80;30.90
52973;DHT22;38837;48.916;2.336;2024-02-23T06:43:10;25.90;31.00
52973;DHT22;38837;48.916;2.336;2024-02-23T06:45:12;26.00;31.00
52973;DHT22;38837;48.916;2.336;2024-02-23T06:47:16;26.00;30.80
52973;DHT22;38837;48.916;2.336;2024-02-23T06:49:18;26.10;30.80
52973;DHT22;38837;48.916;2.336;2024-02-23T06:51:20;26.10;30.80
52973;DHT22;38837;48.916;2.336;2024-02-23T06:53:22;26.00;30.60
52973;DHT22;38837;48.916;2.336;2024-02-23T06:55:24;26.00;30.70
52973;DHT22;38837;48.916;2.336;2024-02-23T06:57:25;26.00;30.70
52973;DHT22;38837;48.916;2.336;2024-02-23T06:59:27;26.00;30.80
52973;DHT22;38837;48.916;2.336;2024-02-23T07:01:29;25.90;30.80
52973;DHT22;38837;48.916;2.336;2024-02-23T07:03:33;25.80;30.80
52973;DHT22;38837;48.916;2.336;2024-02-23T07:05:37;25.80;30.90
52973;DHT22;38837;48.916;2.336;2024-02-23T07:07:39;25.90;30.90
52973;DHT22;38837;48.916;2.336;2024-02-23T07:09:42;25.90;30.90
52973;DHT22;38837;48.916;2.336;2024-02-23T07:11:44;25.90;30.80
52973;DHT22;38837;48.916;2.336;2024-02-23T07:13:47;26.00;30.80
52973;DHT22;38837;48.916;2.336;2024-02-23T07:15:49;26.00;30.80
52973;DHT22;38837;48.916;2.336;2024-02-23T07:17:52;26.10;30.70
52973;DHT22;38837;48.916;2.336;2024-02-23T07:19:53;26.20;30.70
52973;DHT22;38837;48.916;2.336;2024-02-23T07:21:55;26.10;30.50
52973;DHT22;38837;48.916;2.336;2024-02-23T07:23:57;26.10;30.60
52973;DHT22;38837;48.916;2.336;2024-02-23T07:25:59;26.10;30.60
52973;DHT22;38837;48.916;2.336;2024-02-23T07:28:01;26.00;30.60
52973;DHT22;38837;48.916;2.336;2024-02-23T07:30:03;26.00;30.80
52973;DHT22;38837;48.916;2.336;2024-02-23T07:32:06;25.90;30.70
52973;DHT22;38837;48.916;2.336;2024-02-23T07:34:11;25.90;30.80
52973;DHT22;38837;48.916;2.336;2024-02-23T07:36:17;26.00;30.80
52973;DHT22;38837;48.916;2.336;2024-02-23T07:38:19;26.00;30.70
52973;DHT22;38837;48.916;2.336;2024-02-23T07:40:21;26.10;30.70
52973;DHT22;38837;48.916;2.336;2024-02-23T07:42:23;26.10;30.60
52973;DHT22;38837;48.916;2.336;2024-02-23T07:44:25;26.10;30.60
52973;DHT22;38837;48.916;2.336;2024-02-23T07:46:28;26.20;30.60
52973;DHT22;38837;48.916;2.336;2024-02-23T07:48:30;26.20;30.60
52973;DHT22;38837;48.916;2.336;2024-02-23T07:50:32;26.10;30.40
52973;DHT22;38837;48.916;2.336;2024-02-23T07:52:34;26.20;30.50
52973;DHT22;38837;48.916;2.336;2024-02-23T07:54:36;26.10;30.40
52973;DHT22;38837;48.916;2.336;2024-02-23T07:56:38;26.10;30.40
52973;DHT22;38837;48.916;2.336;2024-02-23T07:58:40;26.00;30.50
52973;DHT22;38837;48.916;2.336;2024-02-23T08:00:42;26.00;30.60
52973;DHT22;38837;48.916;2.336;2024-02-23T08:02:44;26.00;31.10
52973;DHT22;38837;48.916;2.336;2024-02-23T08:04:46;26.00;30.60
52973;DHT22;38837;48.916;2.336;2024-02-23T08:06:49;26.10;30.70
52973;DHT22;38837;48.916;2.336;2024-02-23T08:08:52;26.10;30.60
52973;DHT22;38837;48.916;2.336;2024-02-23T08:10:55;26.20;30.60
52973;DHT22;38837;48.916;2.336;2024-02-23T08:12:59;26.20;30.60
52973;DHT22;38837;48.916;2.336;2024-02-23T08:15:01;26.20;30.50
52973;DHT22;38837;48.916;2.336;2024-02-23T08:17:03;26.20;30.50
52973;DHT22;38837;48.916;2.336;2024-02-23T08:19:05;26.30;30.40
52973;DHT22;38837;48.916;2.336;2024-02-23T08:21:07;26.20;30.50
52973;DHT22;38837;48.916;2.336;2024-02-23T08:23:10;26.10;30.40
52973;DHT22;38837;48.916;2.336;2024-02-23T08:25:14;26.10;30.40
52973;DHT22;38837;48.916;2.336;2024-02-23T08:27:16;26.00;30.40
52973;DHT22;38837;48.916;2.336;2024-02-23T08:29:18;25.90;30.50
52973;DHT22;38837;48.916;2.336;2024-02-23T08:31:20;26.00;30.60
52973;DHT22;38837;48.916;2.336;2024-02-23T08:33:23;26.00;30.70
52973;DHT22;38837;48.916;2.336;2024-02-23T08:35:26;26.10;30.60
52973;DHT22;38837;48.916;2.336;2024-02-23T08:37:28;26.10;30.50
52973;DHT22;38837;48.916;2.336;2024-02-23T08:39:30;26.20;30.50
52973;DHT22;38837;48.916;2.336;2024-02-23T08:41:32;26.20;30.30
52973;DHT22;38837;48.916;2.336;2024-02-23T08:43:34;26.20;30.50
52973;DHT22;38837;48.916;2.336;2024-02-23T08:45:36;26.20;30.30
52973;DHT22;38837;48.916;2.336;2024-02-23T08:47:38;26.20;30.30
52973;DHT22;38837;48.916;2.336;2024-02-23T08:49:40;26.20;32.10
52973;DHT22;38837;48.916;2.336;2024-02-23T08:51:42;26.30;30.60
52973;DHT22;38837;48.916;2.336;2024-02-23T08:53:44;26.20;30.30
52973;DHT22;38837;48.916;2.336;2024-02-23T08:55:46;26.30;30.50
52973;DHT22;38837;48.916;2.336;2024-02-23T08:57:48;26.30;30.30
52973;DHT22;38837;48.916;2.336;2024-02-23T08:59:50;26.40;30.40
52973;DHT22;38837;48.916;2.336;2024-02-23T09:01:52;26.60;30.40
52973;DHT22;38837;48.916;2.336;2024-02-23T09:03:54;26.60;30.30
52973;DHT22;38837;48.916;2.336;2024-02-23T09:05:57;26.70;30.40
52973;DHT22;38837;48.916;2.336;2024-02-23T09:07:59;26.70;30.60
52973;DHT22;38837;48.916;2.336;2024-02-23T09:10:02;26.80;30.50
52973;DHT22;38837;48.916;2.336;2024-02-23T09:12:07;26.70;30.60
52973;DHT22;38837;48.916;2.336;2024-02-23T09:14:12;26.50;30.40
52973;DHT22;38837;48.916;2.336;2024-02-23T09:16:16;26.70;30.50
52973;DHT22;38837;48.916;2.336;2024-02-23T09:18:19;26.60;30.50
52973;DHT22;38837;48.916;2.336;2024-02-23T09:20:22;26.60;30.40
52973;DHT22;38837;48.916;2.336;2024-02-23T09:22:24;26.60;30.40
52973;DHT22;38837;48.916;2.336;2024-02-23T09:24:26;26.50;30.60
52973;DHT22;38837;48.916;2.336;2024-02-23T09:26:28;26.60;30.60
52973;DHT22;38837;48.916;2.336;2024-02-23T09:28:30;26.70;30.50
52973;DHT22;38837;48.916;2.336;2024-02-23T09:30:33;26.70;30.50
52973;DHT22;38837;48.916;2.336;2024-02-23T09:32:34;26.70;30.90
52973;DHT22;38837;48.916;2.336;2024-02-23T09:34:37;26.60;30.70
52973;DHT22;38837;48.916;2.336;2024-02-23T09:36:39;26.70;30.60
52973;DHT22;38837;48.916;2.336;2024-02-23T09:38:41;26.80;30.40
52973;DHT22;38837;48.916;2.336;2024-02-23T09:40:43;26.80;30.10
52973;DHT22;38837;48.916;2.336;2024-02-23T09:42:55;26.80;30.30
52973;DHT22;38837;48.916;2.336;2024-02-23T09:44:59;26.80;30.20
52973;DHT22;38837;48.916;2.336;2024-02-23T09:47:03;26.80;30.20
52973;DHT22;38837;48.916;2.336;2024-02-23T09:49:12;26.80;30.30
52973;DHT22;38837;48.916;2.336;2024-02-23T09:51:16;26.70;30.40
52973;DHT22;38837;48.916;2.336;2024-02-23T09:53:19;26.70;30.90
52973;DHT22;38837;48.916;2.336;2024-02-23T09:55:23;26.70;31.10
52973;DHT22;38837;48.916;2.336;2024-02-23T09:57:25;26.90;30.70
52973;DHT22;38837;48.916;2.336;2024-02-23T09:59:27;26.90;30.70
52973;DHT22;38837;48.916;2.336;2024-02-23T10:01:32;26.90;30.70
52973;DHT22;38837;48.916;2.336;2024-02-23T10:03:35;26.80;30.60
52973;DHT22;38837;48.916;2.336;2024-02-23T10:05:38;26.80;30.70
52973;DHT22;38837;48.916;2.336;2024-02-23T10:07:43;26.70;30.70
52973;DHT22;38837;48.916;2.336;2024-02-23T10:09:46;26.70;30.60
52973;DHT22;38837;48.916;2.336;2024-02-23T10:11:54;26.70;31.00
52973;DHT22;38837;48.916;2.336;2024-02-23T10:13:57;26.70;30.80
52973;DHT22;38837;48.916;2.336;2024-02-23T10:15:59;26.70;30.50
52973;DHT22;38837;48.916;2.336;2024-02-23T10:18:16;26.60;30.80
52973;DHT22;38837;48.916;2.336;2024-02-23T10:20:18;26.50;30.80
52973;DHT22;38837;48.916;2.336;2024-02-23T10:22:20;26.50;31.80
52973;DHT22;38837;48.916;2.336;2024-02-23T10:24:23;26.50;31.40
52973;DHT22;38837;48.916;2.336;2024-02-23T10:26:27;26.50;31.50
52973;DHT22;38837;48.916;2.336;2024-02-23T10:28:29;26.50;31.10
52973;DHT22;38837;48.916;2.336;2024-02-23T10:30:31;26.60;31.40
52973;DHT22;38837;48.916;2.336;2024-02-23T10:32:35;26.70;31.30
52973;DHT22;38837;48.916;2.336;2024-02-23T10:34:39;26.50;31.20
52973;DHT22;38837;48.916;2.336;2024-02-23T10:36:46;26.50;31.10
52973;DHT22;38837;48.916;2.336;2024-02-23T10:38:53;26.60;31.20
52973;DHT22;38837;48.916;2.336;2024-02-23T10:40:57;26.50;31.10
52973;DHT22;38837;48.916;2.336;2024-02-23T10:43:01;26.50;31.10
52973;DHT22;38837;48.916;2.336;2024-02-23T10:45:06;26.30;31.40
52973;DHT22;38837;48.916;2.336;2024-02-23T10:47:08;26.30;31.90
52973;DHT22;38837;48.916;2.336;2024-02-23T10:49:11;26.10;31.10
52973;DHT22;38837;48.916;2.336;2024-02-23T10:51:14;26.10;31.30
52973;DHT22;38837;48.916;2.336;2024-02-23T10:53:23;26.10;31.20
52973;DHT22;38837;48.916;2.336;2024-02-23T10:55:26;26.10;31.20
52973;DHT22;38837;48.916;2.336;2024-02-23T10:57:30;26.10;31.10
52973;DHT22;38837;48.916;2.336;2024-02-23T10:59:32;26.10;31.10
52973;DHT22;38837;48.916;2.336;2024-02-23T11:01:35;26.10;31.20
52973;DHT22;38837;48.916;2.336;2024-02-23T11:03:43;26.10;31.10
52973;DHT22;38837;48.916;2.336;2024-02-23T11:05:48;25.90;31.20
52973;DHT22;38837;48.916;2.336;2024-02-23T11:07:51;25.90;31.40
52973;DHT22;38837;48.916;2.336;2024-02-23T11:09:54;25.80;31.30
52973;DHT22;38837;48.916;2.336;2024-02-23T11:11:57;25.90;31.30
52973;DHT22;38837;48.916;2.336;2024-02-23T11:14:07;25.90;31.40
52973;DHT22;38837;48.916;2.336;2024-02-23T11:16:10;25.80;31.30
52973;DHT22;38837;48.916;2.336;2024-02-23T11:18:22;25.80;31.40
52973;DHT22;38837;48.916;2.336;2024-02-23T11:20:34;25.90;32.10
52973;DHT22;38837;48.916;2.336;2024-02-23T11:22:36;26.00;31.60
52973;DHT22;38837;48.916;2.336;2024-02-23T11:24:44;26.30;31.50
52973;DHT22;38837;48.916;2.336;2024-02-23T11:26:48;26.40;31.20
52973;DHT22;38837;48.916;2.336;2024-02-23T11:28:50;26.40;31.10
52973;DHT22;38837;48.916;2.336;2024-02-23T11:30:55;26.60;31.20
52973;DHT22;38837;48.916;2.336;2024-02-23T11:32:59;26.70;31.00
52973;DHT22;38837;48.916;2.336;2024-02-23T11:35:02;26.70;30.80
52973;DHT22;38837;48.916;2.336;2024-02-23T11:37:11;26.70;30.70
52973;DHT22;38837;48.916;2.336;2024-02-23T11:39:15;26.60;30.80
52973;DHT22;38837;48.916;2.336;2024-02-23T11:41:17;26.50;30.80
52973;DHT22;38837;48.916;2.336;2024-02-23T11:43:19;26.60;30.90
52973;DHT22;38837;48.916;2.336;2024-02-23T11:45:24;26.50;31.00
52973;DHT22;38837;48.916;2.336;2024-02-23T11:47:26;26.50;31.00
52973;DHT22;38837;48.916;2.336;2024-02-23T11:49:29;26.60;30.90
52973;DHT22;38837;48.916;2.336;2024-02-23T11:51:33;26.70;30.90
52973;DHT22;38837;48.916;2.336;2024-02-23T11:53:37;26.80;30.90
52973;DHT22;38837;48.916;2.336;2024-02-23T11:55:41;26.90;30.80
52973;DHT22;38837;48.916;2.336;2024-02-23T11:57:44;26.90;30.80
52973;DHT22;38837;48.916;2.336;2024-02-23T11:59:50;26.90;30.70
52973;DHT22;38837;48.916;2.336;2024-02-23T12:01:53;26.90;30.70
52973;DHT22;38837;48.916;2.336;2024-02-23T12:03:55;26.80;30.60
52973;DHT22;38837;48.916;2.336;2024-02-23T12:05:57;26.80;30.70
52973;DHT22;38837;48.916;2.336;2024-02-23T12:08:00;26.80;30.70
52973;DHT22;38837;48.916;2.336;2024-02-23T12:10:03;26.70;30.70
52973;DHT22;38837;48.916;2.336;2024-02-23T12:12:05;26.70;30.70
52973;DHT22;38837;48.916;2.336;2024-02-23T12:14:07;26.60;31.90
52973;DHT22;38837;48.916;2.336;2024-02-23T12:16:10;26.60;30.90
52973;DHT22;38837;48.916;2.336;2024-02-23T12:18:12;26.70;30.70
52973;DHT22;38837;48.916;2.336;2024-02-23T12:20:15;26.80;30.50
52973;DHT22;38837;48.916;2.336;2024-02-23T12:22:17;26.90;30.30
52973;DHT22;38837;48.916;2.336;2024-02-23T12:24:20;27.00;30.10
52973;DHT22;38837;48.916;2.336;2024-02-23T12:26:22;27.00;30.10
52973;DHT22;38837;48.916;2.336;2024-02-23T12:28:24;27.10;31.80
52973;DHT22;38837;48.916;2.336;2024-02-23T12:30:26;26.90;31.90
52973;DHT22;38837;48.916;2.336;2024-02-23T12:32:30;26.80;32.40
52973;DHT22;38837;48.916;2.336;2024-02-23T12:34:32;26.80;32.10
52973;DHT22;38837;48.916;2.336;2024-02-23T12:36:36;26.70;31.70
52973;DHT22;38837;48.916;2.336;2024-02-23T12:38:43;26.60;31.30
52973;DHT22;38837;48.916;2.336;2024-02-23T12:40:45;26.50;31.60
52973;DHT22;38837;48.916;2.336;2024-02-23T12:42:46;26.40;31.30
52973;DHT22;38837;48.916;2.336;2024-02-23T12:44:50;26.40;31.20
52973;DHT22;38837;48.916;2.336;2024-02-23T12:46:52;26.40;31.30
52973;DHT22;38837;48.916;2.336;2024-02-23T12:48:58;26.40;30.90
52973;DHT22;38837;48.916;2.336;2024-02-23T12:51:00;26.40;31.10
52973;DHT22;38837;48.916;2.336;2024-02-23T12:53:03;26.30;30.90
52973;DHT22;38837;48.916;2.336;2024-02-23T12:55:06;26.40;30.60